Main page
METAR-TAF:

METAR-TAF

Airports :

London-Southend, England

London Southend Airport

latitude: 51-34N, longitude: 000-42E, elevation: 15 m

Current weather observation

The report was made 16 minutes ago, at 21:20 UTC
Wind 2 kt from variable directions
Temperature -3°C
Humidity 86%
Pressure 1026 hPa
Visibility 10 km or more
no clouds below 1500 m and no cumulonimbus

METAR: EGMC 212120Z VRB02KT CAVOK M03/M05 Q1026

Time: 21:36 (21:36 UTC)

Forecast

The report was made 1 hour and 35 minutes ago, at 20:01 UTC
Forecast valid from 21 at 21 UTC to 22 at 06 UTC
Wind 2 kt from variable directions
Visibility 10 km or more
Scattered clouds at a height of 2000 ft
Temporary
from 21 at 21 UTC to 22 at 06 UTC
Visibility: 6000 m
Probability 30% :
Temporary
from 21 at 21 UTC to 22 at 01 UTC
Broken clouds at a height of 1400 ft
Probability 30%
from 22 at 04 UTC to 22 at 06 UTC
Visibility: 4500 m
haze

TAF: EGMC 212001Z 2121/2206 VRB02KT 9999 SCT020 TEMPO 2121/2206 6000 PROB30 TEMPO 2121/2201 BKN014 PROB30 2204/2206 4500 HZ

Weather observations and forecasts of more than 4000 airports (METAR and TAF reports).

The available stations are represented by yellow and red dots on the map.

Hover mouse over dot to see the name of the station.

Then click to see weather observations and forecasts.

To change the map : click on the green buttons with a black cross to zoom in, on the green button with a dash to zoom out, or on the green arrows for adjacent maps.


METAR-TAF: